Time;durP1;ratioP1;P1;durP2;ratioP2;P2;SDS_P1;SDS_P2;PMS_P1;PMS_P2;Temp;Humidity;BMP_temperature;BMP_pressure;BME280_temperature;BME280_humidity;BME280_pressure;Samples;Min_cycle;Max_cycle;Signal;HPM_P1;HPM_P2
2024/01/27 00:00:17;;;;;;;0.30;0.30;;;4.50;99.90;;;;;;5028860;28;20640;-93
2024/01/27 00:02:43;;;;;;;0.30;0.30;;;4.50;99.90;;;;;;5015738;28;20187;-93
2024/01/27 00:05:09;;;;;;;0.40;0.40;;;4.50;99.90;;;;;;5011502;28;21084;-93
2024/01/27 00:07:34;;;;;;;0.30;0.30;;;4.60;99.90;;;;;;5029498;28;20457;-93
2024/01/27 00:10:01;;;;;;;0.30;0.30;;;4.60;99.90;;;;;;5030033;28;20557;-92
2024/01/27 00:12:27;;;;;;;0.30;0.30;;;4.60;99.90;;;;;;5023413;28;20301;-93
2024/01/27 00:14:52;;;;;;;0.40;0.40;;;4.60;99.90;;;;;;5006896;28;20470;-93
2024/01/27 00:17:23;;;;;;;0.30;0.30;;;4.60;99.90;;;;;;5026947;28;20191;-92
2024/01/27 00:19:49;;;;;;;0.30;0.30;;;4.60;99.90;;;;;;5019193;28;20270;-93
2024/01/27 00:22:16;;;;;;;0.30;0.30;;;4.70;99.90;;;;;;5032412;28;20609;-92
2024/01/27 00:24:42;;;;;;;0.30;0.30;;;4.70;99.90;;;;;;5031878;28;20430;-94
2024/01/27 00:27:08;;;;;;;0.50;0.50;;;4.70;99.90;;;;;;5032146;28;20462;-94
2024/01/27 00:29:33;;;;;;;0.47;0.47;;;4.70;99.90;;;;;;5021499;28;21105;-93
2024/01/27 00:31:59;;;;;;;0.37;0.37;;;4.70;99.90;;;;;;5017285;28;20224;-94
2024/01/27 00:34:25;;;;;;;0.30;0.30;;;4.70;99.90;;;;;;5026955;28;20199;-92
2024/01/27 00:36:51;;;;;;;0.30;0.30;;;4.60;99.90;;;;;;5014599;28;20657;-92
2024/01/27 00:39:17;;;;;;;0.30;0.30;;;4.50;99.90;;;;;;5019195;28;20502;-93
2024/01/27 00:41:43;;;;;;;0.30;0.30;;;4.50;99.90;;;;;;5023659;28;20180;-92
2024/01/27 00:44:09;;;;;;;0.30;0.30;;;4.50;99.90;;;;;;5031375;28;20445;-93
2024/01/27 00:46:34;;;;;;;0.30;0.30;;;4.40;99.90;;;;;;5031079;28;20187;-93
2024/01/27 00:49:00;;;;;;;0.30;0.30;;;4.40;99.90;;;;;;5030599;28;20424;-93
2024/01/27 00:51:25;;;;;;;0.30;0.30;;;4.40;99.90;;;;;;5030598;28;20566;-93
2024/01/27 00:53:51;;;;;;;0.30;0.30;;;4.40;99.90;;;;;;5014543;28;20196;-93
2024/01/27 00:56:16;;;;;;;0.30;0.30;;;4.50;99.90;;;;;;4997933;28;20195;-93
2024/01/27 00:58:42;;;;;;;0.30;0.30;;;4.40;99.90;;;;;;5030184;28;20221;-93
2024/01/27 01:01:07;;;;;;;0.30;0.30;;;4.40;99.90;;;;;;5027806;28;20203;-93
2024/01/27 01:03:33;;;;;;;0.40;0.40;;;4.50;99.90;;;;;;5035495;28;20180;-92
2024/01/27 01:05:58;;;;;;;0.40;0.40;;;4.50;99.90;;;;;;5009459;28;20836;-93
2024/01/27 01:08:24;;;;;;;0.30;0.30;;;4.50;99.90;;;;;;5025591;28;20178;-93
2024/01/27 01:10:49;;;;;;;0.30;0.30;;;4.50;99.90;;;;;;5025895;28;20204;-94
2024/01/27 01:13:15;;;;;;;0.30;0.30;;;4.50;99.90;;;;;;5010427;28;20239;-93
2024/01/27 01:15:40;;;;;;;0.30;0.30;;;4.50;99.90;;;;;;5031816;28;20246;-93
2024/01/27 01:18:06;;;;;;;0.30;0.30;;;4.50;99.90;;;;;;5020241;28;20192;-92
2024/01/27 01:20:32;;;;;;;0.40;0.40;;;4.50;99.90;;;;;;5004828;28;20147;-93
2024/01/27 01:22:58;;;;;;;0.30;0.30;;;4.50;99.90;;;;;;5020350;28;20657;-94
2024/01/27 01:25:23;;;;;;;0.30;0.30;;;4.50;99.90;;;;;;5027364;28;20454;-92
2024/01/27 01:27:50;;;;;;;0.30;0.30;;;4.50;99.90;;;;;;5016262;28;20186;-93
2024/01/27 01:30:15;;;;;;;;;;;4.50;99.90;;;;;;5020179;28;20034;-93
2024/01/27 01:32:41;;;;;;;;;;;4.50;99.90;;;;;;5013263;28;19924;-93
2024/01/27 01:35:06;;;;;;;0.30;0.30;;;4.50;99.90;;;;;;5029575;28;19968;-93
2024/01/27 01:37:32;;;;;;;0.30;0.30;;;4.60;99.90;;;;;;5020189;28;20190;-92
2024/01/27 01:39:57;;;;;;;0.30;0.30;;;4.60;99.90;;;;;;5032495;28;20187;-91
2024/01/27 01:42:24;;;;;;;0.30;0.30;;;4.60;99.90;;;;;;5033204;28;20033;-93
2024/01/27 01:44:51;;;;;;;0.30;0.30;;;4.60;99.90;;;;;;5025331;28;20315;-92
2024/01/27 01:47:16;;;;;;;0.33;0.33;;;4.60;99.90;;;;;;4999911;28;20451;-93
2024/01/27 01:49:42;;;;;;;0.30;0.30;;;4.70;99.90;;;;;;5008540;28;20445;-93
2024/01/27 01:52:08;;;;;;;0.30;0.30;;;4.70;99.90;;;;;;5018945;28;20208;-94
2024/01/27 01:54:34;;;;;;;0.30;0.30;;;4.70;99.90;;;;;;5020568;28;20193;-93
2024/01/27 01:56:59;;;;;;;0.30;0.30;;;4.70;99.90;;;;;;5026936;28;20180;-93
2024/01/27 01:59:25;;;;;;;0.30;0.30;;;4.60;99.90;;;;;;5032588;28;20457;-93
2024/01/27 02:01:51;;;;;;;0.30;0.30;;;4.70;99.90;;;;;;5029997;28;20180;-93
2024/01/27 02:04:16;;;;;;;0.30;0.30;;;4.70;99.90;;;;;;5007740;28;20188;-93
2024/01/27 02:06:42;;;;;;;0.30;0.30;;;4.70;99.90;;;;;;5024254;28;20033;-93
2024/01/27 02:09:07;;;;;;;0.30;0.30;;;4.70;99.90;;;;;;5016108;28;20169;-93
2024/01/27 02:11:33;;;;;;;0.30;0.30;;;4.70;99.90;;;;;;5028205;28;20231;-93
2024/01/27 02:13:58;;;;;;;0.30;0.30;;;4.70;99.90;;;;;;5030153;28;20175;-93
2024/01/27 02:16:24;;;;;;;0.30;0.30;;;4.70;99.90;;;;;;5004417;28;20645;-93
2024/01/27 02:18:49;;;;;;;0.30;0.30;;;4.70;99.90;;;;;;5029683;28;20211;-93
2024/01/27 02:21:15;;;;;;;0.30;0.30;;;4.70;99.90;;;;;;5034724;28;20201;-93
2024/01/27 02:23:40;;;;;;;0.30;0.30;;;4.80;99.90;;;;;;5031505;28;20550;-93
2024/01/27 02:26:06;;;;;;;0.30;0.30;;;4.70;99.90;;;;;;5006201;28;20224;-93
2024/01/27 02:28:33;;;;;;;0.30;0.30;;;4.70;99.90;;;;;;5017484;28;20637;-93
2024/01/27 02:30:59;;;;;;;0.30;0.30;;;4.70;99.90;;;;;;5025870;28;20172;-94
2024/01/27 02:33:25;;;;;;;0.30;0.30;;;4.70;99.90;;;;;;5013793;28;20681;-93
2024/01/27 02:35:51;;;;;;;0.30;0.30;;;4.80;99.90;;;;;;5018978;28;20425;-93
2024/01/27 02:38:16;;;;;;;0.30;0.30;;;4.70;99.90;;;;;;5034444;28;20414;-93
2024/01/27 02:40:42;;;;;;;0.30;0.30;;;4.80;99.90;;;;;;5022361;28;20643;-93
2024/01/27 02:43:07;;;;;;;0.30;0.30;;;4.80;99.90;;;;;;5020048;28;20187;-92
2024/01/27 02:45:33;;;;;;;0.30;0.30;;;4.80;99.90;;;;;;5031423;28;20618;-93
2024/01/27 02:47:58;;;;;;;0.30;0.30;;;4.80;99.90;;;;;;5033140;28;20222;-93
2024/01/27 02:50:24;;;;;;;0.30;0.30;;;4.90;99.90;;;;;;5033231;28;20191;-93
2024/01/27 02:52:50;;;;;;;0.30;0.30;;;4.90;99.90;;;;;;5023996;28;20699;-94
2024/01/27 02:55:15;;;;;;;0.30;0.30;;;4.90;99.90;;;;;;5033668;28;20223;-93
2024/01/27 02:57:41;;;;;;;0.30;0.30;;;4.90;99.90;;;;;;5034059;28;20198;-92
2024/01/27 03:00:07;;;;;;;0.30;0.30;;;4.90;99.90;;;;;;5021364;28;20675;-93
2024/01/27 03:02:33;;;;;;;0.30;0.30;;;5.00;99.90;;;;;;5016999;28;20270;-93
2024/01/27 03:04:58;;;;;;;0.30;0.30;;;4.90;99.90;;;;;;5014033;28;20526;-93
2024/01/27 03:07:24;;;;;;;0.27;0.27;;;4.90;99.90;;;;;;5049577;28;20194;-93
2024/01/27 03:09:49;;;;;;;0.30;0.30;;;5.00;99.90;;;;;;5036613;28;20944;-93
2024/01/27 03:12:15;;;;;;;0.30;0.30;;;5.00;99.90;;;;;;5033808;28;20231;-93
2024/01/27 03:14:41;;;;;;;0.30;0.30;;;5.00;99.90;;;;;;5032739;28;20188;-93
2024/01/27 03:17:07;;;;;;;0.30;0.30;;;5.00;99.90;;;;;;5025557;28;20188;-94
2024/01/27 03:19:33;;;;;;;0.30;0.30;;;5.00;99.90;;;;;;5023082;28;20445;-93
2024/01/27 03:21:58;;;;;;;0.30;0.30;;;5.00;99.90;;;;;;5029662;28;20276;-93
2024/01/27 03:24:24;;;;;;;0.30;0.30;;;5.00;99.90;;;;;;5026978;28;20241;-93
2024/01/27 03:26:50;;;;;;;0.27;0.27;;;5.00;99.90;;;;;;5030694;28;20206;-92
2024/01/27 03:29:15;;;;;;;0.30;0.30;;;5.00;99.90;;;;;;5034102;28;20192;-93
2024/01/27 03:31:41;;;;;;;0.30;0.30;;;5.00;99.90;;;;;;5004454;28;20579;-93
2024/01/27 03:34:06;;;;;;;0.30;0.30;;;5.10;99.90;;;;;;5031614;28;20179;-93
2024/01/27 03:36:32;;;;;;;0.30;0.30;;;5.10;99.90;;;;;;5032591;28;20550;-93
2024/01/27 03:38:58;;;;;;;0.30;0.30;;;5.10;99.90;;;;;;5022868;28;20200;-93
2024/01/27 03:41:24;;;;;;;0.30;0.30;;;5.10;99.90;;;;;;5027943;28;20200;-93
2024/01/27 03:43:50;;;;;;;0.30;0.30;;;5.10;99.90;;;;;;5032591;28;20449;-93
2024/01/27 03:46:16;;;;;;;0.30;0.30;;;5.10;99.90;;;;;;5033484;28;20191;-93
2024/01/27 03:48:42;;;;;;;0.30;0.30;;;5.10;99.90;;;;;;5003804;28;20271;-93
2024/01/27 03:51:07;;;;;;;0.20;0.20;;;5.10;99.90;;;;;;5026512;28;20450;-94
2024/01/27 03:53:33;;;;;;;0.30;0.30;;;5.20;99.90;;;;;;5022816;28;20458;-92
2024/01/27 03:55:59;;;;;;;0.30;0.30;;;5.10;99.90;;;;;;5021450;28;20192;-93
2024/01/27 03:58:25;;;;;;;0.30;0.30;;;5.20;99.90;;;;;;5023466;28;20215;-93
2024/01/27 04:00:51;;;;;;;0.30;0.30;;;5.20;99.90;;;;;;5015445;28;20871;-92
2024/01/27 04:03:17;;;;;;;0.30;0.30;;;5.10;99.90;;;;;;5008065;28;20542;-93
2024/01/27 04:05:42;;;;;;;0.30;0.30;;;5.20;99.90;;;;;;5029164;28;20419;-93
2024/01/27 04:08:08;;;;;;;0.30;0.30;;;5.10;99.90;;;;;;5031247;28;20180;-93
2024/01/27 04:10:34;;;;;;;0.30;0.30;;;5.10;99.90;;;;;;5008829;28;20176;-93
2024/01/27 04:12:59;;;;;;;0.30;0.30;;;5.10;99.90;;;;;;5004295;28;20275;-93
2024/01/27 04:15:25;;;;;;;0.30;0.30;;;5.10;99.90;;;;;;5027150;28;20439;-93
2024/01/27 04:17:51;;;;;;;0.30;0.30;;;5.10;99.90;;;;;;5026851;28;20191;-93
2024/01/27 04:20:16;;;;;;;0.30;0.30;;;5.10;99.90;;;;;;5031769;28;20211;-93
2024/01/27 04:22:42;;;;;;;0.30;0.30;;;5.00;99.90;;;;;;5020418;28;20192;-93
2024/01/27 04:25:08;;;;;;;0.30;0.30;;;5.00;99.90;;;;;;5012404;28;20346;-94
2024/01/27 04:27:38;;;;;;;0.30;0.30;;;5.00;99.90;;;;;;5012354;28;20199;-93
2024/01/27 04:30:06;;;;;;;0.20;0.20;;;5.00;99.90;;;;;;5023222;28;20187;-93
2024/01/27 04:32:31;;;;;;;0.30;0.30;;;5.00;99.90;;;;;;5028069;28;20478;-93
2024/01/27 04:34:57;;;;;;;0.30;0.30;;;4.90;99.90;;;;;;5032937;28;20433;-93
2024/01/27 04:37:22;;;;;;;0.30;0.30;;;4.90;99.90;;;;;;5019854;28;20192;-93
2024/01/27 04:39:48;;;;;;;0.30;0.30;;;4.90;99.90;;;;;;5020735;28;20215;-92
2024/01/27 04:42:13;;;;;;;0.30;0.30;;;4.80;99.90;;;;;;5013947;28;20263;-93
2024/01/27 04:44:42;;;;;;;0.30;0.30;;;4.80;99.90;;;;;;5025452;28;20274;-93
2024/01/27 04:47:08;;;;;;;0.30;0.30;;;4.70;99.90;;;;;;5015928;28;20194;-93
2024/01/27 04:49:34;;;;;;;0.30;0.30;;;4.70;99.90;;;;;;5020669;28;20525;-93
2024/01/27 04:51:59;;;;;;;0.30;0.30;;;4.70;99.90;;;;;;5021186;28;20705;-93
2024/01/27 04:54:25;;;;;;;0.30;0.30;;;4.60;99.90;;;;;;5019527;28;20179;-94
2024/01/27 04:56:50;;;;;;;0.27;0.27;;;4.60;99.90;;;;;;5034684;28;20666;-93
2024/01/27 04:59:16;;;;;;;0.30;0.30;;;4.70;99.90;;;;;;5020110;28;20188;-92
2024/01/27 05:01:46;;;;;;;0.30;0.30;;;4.70;99.90;;;;;;5030739;28;20640;-94
2024/01/27 05:04:12;;;;;;;0.30;0.30;;;4.60;99.90;;;;;;5032227;28;20191;-93
2024/01/27 05:06:38;;;;;;;0.30;0.30;;;4.60;99.90;;;;;;5015049;28;20442;-93
2024/01/27 05:09:05;;;;;;;0.40;0.40;;;4.70;99.90;;;;;;5031778;28;20419;-93
2024/01/27 05:11:32;;;;;;;0.30;0.30;;;4.70;99.90;;;;;;5020046;28;20482;-93
2024/01/27 05:13:59;;;;;;;0.30;0.30;;;4.70;99.90;;;;;;5017529;28;20464;-93
2024/01/27 05:16:24;;;;;;;0.30;0.30;;;4.70;99.90;;;;;;5027449;28;20442;-93
2024/01/27 05:18:50;;;;;;;0.30;0.30;;;4.70;99.90;;;;;;5013230;28;20438;-93
2024/01/27 05:21:15;;;;;;;0.30;0.30;;;4.70;99.90;;;;;;5008652;28;20208;-93
2024/01/27 05:23:41;;;;;;;0.30;0.30;;;4.70;99.90;;;;;;5016803;28;20188;-94
2024/01/27 05:26:07;;;;;;;0.30;0.30;;;4.70;99.90;;;;;;5029972;28;20262;-93
2024/01/27 05:28:33;;;;;;;0.30;0.30;;;4.70;99.90;;;;;;4999496;28;20227;-94
2024/01/27 05:30:58;;;;;;;0.30;0.30;;;4.70;99.90;;;;;;5025889;28;20246;-92
2024/01/27 05:33:24;;;;;;;0.30;0.30;;;4.70;99.90;;;;;;5032157;28;20489;-93
2024/01/27 05:35:50;;;;;;;0.30;0.30;;;4.70;99.90;;;;;;5022426;28;20212;-92
2024/01/27 05:38:16;;;;;;;0.30;0.30;;;4.60;99.90;;;;;;5017021;28;20196;-94
2024/01/27 05:40:41;;;;;;;0.30;0.30;;;4.70;99.90;;;;;;5000470;28;20191;-92
2024/01/27 05:43:07;;;;;;;0.30;0.30;;;4.60;99.90;;;;;;5034451;28;20885;-93
2024/01/27 05:45:33;;;;;;;0.30;0.30;;;4.60;99.90;;;;;;5033250;28;20568;-93
2024/01/27 05:47:59;;;;;;;0.30;0.30;;;4.60;99.90;;;;;;5014123;28;20195;-93
2024/01/27 05:50:26;;;;;;;0.30;0.30;;;4.60;99.90;;;;;;5017122;28;20202;-93
2024/01/27 05:52:51;;;;;;;0.30;0.30;;;4.60;99.90;;;;;;5034373;28;21060;-93
2024/01/27 05:55:17;;;;;;;0.30;0.30;;;4.60;99.90;;;;;;5032413;28;20534;-94
2024/01/27 05:57:42;;;;;;;0.30;0.30;;;4.60;99.90;;;;;;5009361;28;20198;-93
2024/01/27 06:00:09;;;;;;;0.30;0.30;;;4.70;99.90;;;;;;5002596;28;20215;-93
2024/01/27 06:02:36;;;;;;;0.30;0.30;;;4.70;99.90;;;;;;5019276;28;20187;-93
2024/01/27 06:05:02;;;;;;;0.30;0.30;;;4.70;99.90;;;;;;5026282;28;20517;-93
2024/01/27 06:07:27;;;;;;;0.30;0.30;;;4.70;99.90;;;;;;5030609;28;20533;-93
2024/01/27 06:09:53;;;;;;;0.30;0.30;;;4.70;99.90;;;;;;5023901;28;20910;-93
2024/01/27 06:12:19;;;;;;;0.30;0.30;;;4.70;99.90;;;;;;5028146;28;20238;-93
2024/01/27 06:14:44;;;;;;;0.30;0.30;;;4.80;99.90;;;;;;5027772;28;20183;-94
2024/01/27 06:17:10;;;;;;;0.30;0.30;;;4.80;99.90;;;;;;5029983;28;20540;-93
2024/01/27 06:19:35;;;;;;;0.20;0.20;;;4.70;99.90;;;;;;5019559;28;20191;-93
2024/01/27 06:22:01;;;;;;;0.23;0.23;;;4.80;99.90;;;;;;5033019;28;20306;-93
2024/01/27 06:24:26;;;;;;;0.30;0.30;;;4.70;99.90;;;;;;5033628;28;20187;-93
2024/01/27 06:26:52;;;;;;;0.30;0.30;;;4.70;99.90;;;;;;5033343;28;20249;-93
2024/01/27 06:29:18;;;;;;;0.30;0.30;;;4.80;99.90;;;;;;5021620;28;20192;-93
2024/01/27 06:31:44;;;;;;;0.30;0.30;;;4.80;99.90;;;;;;5023981;28;20727;-95
2024/01/27 06:34:09;;;;;;;0.30;0.30;;;4.80;99.90;;;;;;5006309;28;20446;-93
2024/01/27 06:36:35;;;;;;;0.30;0.30;;;4.80;99.90;;;;;;5033002;28;20191;-94
2024/01/27 06:39:00;;;;;;;0.30;0.30;;;4.80;99.90;;;;;;5016020;28;20187;-94
2024/01/27 06:41:26;;;;;;;0.30;0.30;;;4.80;99.90;;;;;;5003479;28;20180;-95
2024/01/27 06:43:51;;;;;;;0.30;0.30;;;4.80;99.90;;;;;;5032559;28;20196;-95
2024/01/27 06:46:17;;;;;;;0.30;0.30;;;4.80;99.90;;;;;;5033128;28;20195;-93
2024/01/27 06:48:43;;;;;;;0.30;0.30;;;4.80;99.90;;;;;;5028449;28;20198;-93
2024/01/27 06:51:08;;;;;;;0.30;0.30;;;4.70;99.90;;;;;;5024225;28;20774;-94
2024/01/27 06:53:34;;;;;;;0.30;0.30;;;4.70;99.90;;;;;;5024274;28;20222;-95
2024/01/27 06:55:59;;;;;;;0.30;0.30;;;4.70;99.90;;;;;;5031132;28;20183;-95
2024/01/27 06:58:25;;;;;;;0.30;0.30;;;4.70;99.90;;;;;;5023001;28;20671;-93
2024/01/27 07:00:50;;;;;;;0.30;0.30;;;4.70;99.90;;;;;;5015705;28;20263;-94
2024/01/27 07:03:16;;;;;;;0.30;0.30;;;4.60;99.90;;;;;;5008632;28;20268;-94
2024/01/27 07:05:41;;;;;;;0.30;0.30;;;4.60;99.90;;;;;;5016877;28;20554;-93
2024/01/27 07:08:07;;;;;;;0.30;0.30;;;4.60;99.90;;;;;;5033505;28;20180;-96
2024/01/27 07:10:34;;;;;;;0.20;0.20;;;4.50;99.90;;;;;;5029845;28;20539;-93
2024/01/27 07:12:59;;;;;;;0.30;0.30;;;4.50;99.90;;;;;;5004082;28;20570;-94
2024/01/27 07:15:25;;;;;;;0.30;0.30;;;4.50;99.90;;;;;;5018748;28;20528;-94
2024/01/27 07:17:51;;;;;;;0.30;0.30;;;4.40;99.90;;;;;;5020382;28;20275;-92
2024/01/27 07:20:20;;;;;;;0.30;0.30;;;4.30;99.90;;;;;;5024772;28;20199;-94
2024/01/27 07:22:47;;;;;;;0.30;0.30;;;4.30;99.90;;;;;;5027464;28;20195;-94
2024/01/27 07:25:13;;;;;;;0.30;0.30;;;4.30;99.90;;;;;;5021649;28;20455;-93
2024/01/27 07:27:39;;;;;;;0.30;0.30;;;4.30;99.90;;;;;;5006751;28;20450;-92
2024/01/27 07:30:06;;;;;;;0.30;0.30;;;4.30;99.90;;;;;;5029719;28;20720;-92
2024/01/27 07:32:31;;;;;;;0.30;0.30;;;4.30;99.90;;;;;;5019769;28;20215;-92
2024/01/27 07:34:58;;;;;;;0.33;0.33;;;4.30;99.90;;;;;;5029221;28;20472;-94
2024/01/27 07:37:24;;;;;;;0.83;0.83;;;4.40;99.90;;;;;;5022982;28;20241;-94
2024/01/27 07:39:50;;;;;;;0.37;0.37;;;4.40;99.90;;;;;;5027541;28;20442;-95
2024/01/27 07:42:15;;;;;;;0.60;0.60;;;4.40;99.90;;;;;;5020280;28;20271;-94
2024/01/27 07:44:42;;;;;;;0.30;0.30;;;4.40;99.90;;;;;;5020939;28;20219;-93
2024/01/27 07:47:08;;;;;;;0.30;0.30;;;4.30;99.90;;;;;;5023557;28;20280;-94
2024/01/27 07:49:34;;;;;;;0.30;0.30;;;4.40;99.90;;;;;;5021349;28;20448;-92
2024/01/27 07:51:59;;;;;;;0.27;0.27;;;4.30;99.90;;;;;;5025729;28;20478;-93
2024/01/27 07:54:25;;;;;;;0.30;0.30;;;4.30;99.90;;;;;;5030439;28;20245;-94
2024/01/27 07:56:51;;;;;;;0.40;0.40;;;4.30;99.90;;;;;;5022856;28;20223;-95
2024/01/27 07:59:17;;;;;;;0.30;0.30;;;4.40;99.90;;;;;;5027198;28;20788;-93
2024/01/27 08:01:42;;;;;;;0.30;0.30;;;4.40;99.90;;;;;;5023651;28;20503;-95
2024/01/27 08:04:11;;;;;;;0.30;0.30;;;4.30;99.90;;;;;;5020149;28;20188;-94
2024/01/27 08:06:47;;;;;;;0.30;0.30;;;4.40;99.90;;;;;;5011769;28;20187;-94
2024/01/27 08:09:13;;;;;;;0.30;0.30;;;4.50;99.90;;;;;;5018510;28;20441;-93
2024/01/27 08:11:38;;;;;;;0.30;0.30;;;4.50;99.90;;;;;;5024578;28;20469;-93
2024/01/27 08:14:04;;;;;;;0.20;0.20;;;4.50;99.90;;;;;;5020014;28;20210;-94
2024/01/27 08:16:29;;;;;;;0.30;0.30;;;4.50;99.90;;;;;;5027199;28;20554;-94
2024/01/27 08:18:55;;;;;;;0.30;0.30;;;4.50;99.90;;;;;;5026259;28;20187;-94
2024/01/27 08:21:21;;;;;;;0.30;0.30;;;4.50;99.90;;;;;;5025729;28;20172;-94
2024/01/27 08:23:46;;;;;;;0.30;0.30;;;4.50;99.90;;;;;;5020493;28;20923;-94
2024/01/27 08:26:13;;;;;;;0.30;0.30;;;4.50;99.90;;;;;;5025293;28;20191;-93
2024/01/27 08:28:39;;;;;;;0.30;0.30;;;4.50;99.90;;;;;;5028732;28;20894;-94
2024/01/27 08:31:04;;;;;;;0.30;0.30;;;4.50;99.90;;;;;;5027188;28;20418;-94
2024/01/27 08:33:30;;;;;;;0.30;0.30;;;4.50;99.90;;;;;;5012449;28;20219;-95
2024/01/27 08:35:56;;;;;;;0.20;0.20;;;4.60;99.90;;;;;;5001153;28;20487;-94
2024/01/27 08:38:22;;;;;;;0.30;0.30;;;4.60;99.90;;;;;;5020290;28;20469;-94
2024/01/27 08:40:47;;;;;;;0.20;0.20;;;4.60;99.90;;;;;;5000627;28;20207;-94
2024/01/27 08:43:13;;;;;;;0.40;0.40;;;4.60;99.90;;;;;;5028515;28;20199;-94
2024/01/27 08:45:39;;;;;;;0.30;0.30;;;4.60;99.90;;;;;;5027821;28;20184;-94
2024/01/27 08:48:05;;;;;;;0.30;0.30;;;4.70;99.90;;;;;;5031846;28;20211;-94
2024/01/27 08:50:32;;;;;;;0.30;0.30;;;4.80;99.90;;;;;;5033010;28;20438;-92
2024/01/27 08:52:57;;;;;;;0.20;0.20;;;4.80;99.90;;;;;;5027922;28;20477;-94
2024/01/27 08:55:24;;;;;;;0.30;0.30;;;4.90;99.90;;;;;;5026869;28;20453;-94
2024/01/27 08:57:50;;;;;;;0.30;0.30;;;4.90;99.90;;;;;;5031051;28;20183;-94
2024/01/27 09:00:16;;;;;;;0.30;0.30;;;5.00;99.90;;;;;;5028591;28;20443;-94
2024/01/27 09:02:42;;;;;;;0.30;0.30;;;5.00;99.90;;;;;;5034342;28;20466;-94
2024/01/27 09:05:08;;;;;;;0.30;0.30;;;5.10;99.90;;;;;;5009056;28;20438;-94
2024/01/27 09:07:34;;;;;;;0.20;0.20;;;5.40;99.90;;;;;;5005878;28;20447;-94
2024/01/27 09:10:00;;;;;;;0.20;0.20;;;5.50;99.90;;;;;;5028713;28;20172;-94
2024/01/27 09:12:25;;;;;;;0.20;0.20;;;5.50;99.90;;;;;;5023188;28;20362;-94
2024/01/27 09:14:51;;;;;;;0.20;0.20;;;5.80;99.90;;;;;;5023801;28;20180;-94
2024/01/27 09:17:16;;;;;;;0.30;0.30;;;5.90;99.90;;;;;;5030062;28;20196;-93
2024/01/27 09:19:42;;;;;;;0.20;0.20;;;6.00;99.90;;;;;;5004861;28;20180;-92
2024/01/27 09:22:08;;;;;;;0.30;0.30;;;6.10;99.90;;;;;;5017550;28;20275;-91
2024/01/27 09:24:33;;;;;;;0.40;0.40;;;6.20;99.90;;;;;;5016680;28;20446;-92
2024/01/27 09:26:59;;;;;;;0.50;0.50;;;6.40;99.90;;;;;;5028679;28;20222;-95
2024/01/27 09:29:24;;;;;;;0.77;0.77;;;6.30;99.90;;;;;;5030459;28;20651;-94
2024/01/27 09:31:50;;;;;;;0.30;0.30;;;6.40;99.90;;;;;;5021494;28;20287;-94
2024/01/27 09:34:15;;;;;;;0.30;0.30;;;6.30;99.90;;;;;;5023507;28;20651;-94
2024/01/27 09:36:41;;;;;;;0.30;0.30;;;6.40;99.90;;;;;;5019038;28;20270;-94
2024/01/27 09:39:07;;;;;;;0.20;0.20;;;6.40;99.90;;;;;;5030995;28;20218;-94
2024/01/27 09:41:32;;;;;;;0.20;0.20;;;6.50;99.90;;;;;;5010633;28;20176;-94
2024/01/27 09:44:02;;;;;;;0.70;0.70;;;6.60;99.90;;;;;;5026709;28;20447;-93
2024/01/27 09:46:31;;;;;;;0.80;0.80;;;6.60;99.90;;;;;;5028505;28;20187;-95
2024/01/27 09:48:57;;;;;;;0.20;0.20;;;6.60;99.90;;;;;;5022420;28;20431;-94
2024/01/27 09:51:23;;;;;;;0.20;0.20;;;6.50;99.90;;;;;;5031378;28;20438;-93
2024/01/27 09:53:52;;;;;;;0.20;0.20;;;6.40;99.90;;;;;;5033856;28;20450;-94
2024/01/27 09:56:18;;;;;;;0.30;0.30;;;6.50;99.90;;;;;;5009439;28;20491;-93
2024/01/27 09:58:45;;;;;;;0.47;0.47;;;6.50;99.90;;;;;;5017205;28;20450;-95
2024/01/27 10:01:12;;;;;;;0.20;0.20;;;6.40;99.90;;;;;;5024483;28;20450;-93
2024/01/27 10:03:40;;;;;;;0.30;0.30;;;6.40;99.90;;;;;;5004481;28;20469;-94
2024/01/27 10:06:09;;;;;;;0.20;0.20;;;6.20;99.90;;;;;;5007776;28;20454;-91
2024/01/27 10:08:35;;;;;;;0.27;0.27;;;6.10;99.90;;;;;;5020352;28;20510;-95
2024/01/27 10:11:08;;;;;;;0.30;0.30;;;6.10;99.90;;;;;;5013594;28;20580;-91
2024/01/27 10:13:35;;;;;;;0.30;0.30;;;6.10;99.90;;;;;;5019154;28;20301;-91
2024/01/27 10:16:02;;;;;;;0.53;0.53;;;6.20;99.90;;;;;;5014672;28;20933;-94
2024/01/27 10:18:28;;;;;;;0.30;0.30;;;6.30;99.90;;;;;;5026249;28;20576;-91
2024/01/27 10:20:54;;;;;;;0.37;0.37;;;6.30;99.90;;;;;;5018046;28;20439;-94
2024/01/27 10:23:19;;;;;;;0.60;0.60;;;6.40;99.90;;;;;;5038909;28;20461;-91
2024/01/27 10:25:45;;;;;;;0.30;0.30;;;6.50;99.90;;;;;;5034890;28;20206;-95
2024/01/27 10:28:10;;;;;;;0.20;0.20;;;6.50;99.90;;;;;;5012239;28;20195;-95
2024/01/27 10:30:36;;;;;;;0.30;0.30;;;6.40;99.90;;;;;;5012888;28;20197;-94
2024/01/27 10:33:02;;;;;;;0.20;0.20;;;6.40;99.90;;;;;;5017364;28;20667;-91
2024/01/27 10:35:28;;;;;;;0.20;0.20;;;6.40;99.90;;;;;;5022191;28;20456;-93
2024/01/27 10:37:55;;;;;;;0.20;0.20;;;6.60;99.90;;;;;;5023676;28;20192;-91
2024/01/27 10:40:24;;;;;;;0.20;0.20;;;6.70;99.90;;;;;;5019498;28;20434;-90
2024/01/27 10:42:56;;;;;;;0.30;0.30;;;6.60;99.90;;;;;;5029446;28;20930;-90
2024/01/27 10:45:23;;;;;;;0.20;0.20;;;6.70;99.90;;;;;;5022859;28;20434;-89
2024/01/27 10:47:50;;;;;;;0.20;0.20;;;6.60;99.90;;;;;;5025467;28;20430;-90
2024/01/27 10:50:16;;;;;;;0.23;0.23;;;6.60;99.90;;;;;;5014529;28;20771;-90
2024/01/27 10:52:43;;;;;;;0.20;0.20;;;6.70;99.90;;;;;;5022668;28;20977;-90
2024/01/27 10:55:10;;;;;;;0.20;0.20;;;6.80;99.90;;;;;;5000245;28;20192;-90
2024/01/27 10:57:37;;;;;;;0.30;0.30;;;6.90;99.90;;;;;;5006089;28;20434;-90
2024/01/27 11:00:06;;;;;;;0.20;0.20;;;6.90;99.90;;;;;;5025750;28;20455;-92
2024/01/27 11:02:35;;;;;;;0.20;0.20;;;6.90;99.90;;;;;;5031932;28;20442;-91
2024/01/27 11:05:04;;;;;;;0.20;0.20;;;7.10;99.90;;;;;;5020748;28;20430;-90
2024/01/27 11:07:33;;;;;;;0.20;0.20;;;7.20;99.90;;;;;;5023161;28;20470;-89
2024/01/27 11:09:58;;;;;;;0.20;0.20;;;7.20;99.90;;;;;;5013171;28;20428;-91
2024/01/27 11:12:25;;;;;;;0.20;0.20;;;7.00;99.90;;;;;;5017634;28;20488;-91
2024/01/27 11:14:51;;;;;;;0.20;0.20;;;7.10;99.90;;;;;;5019469;28;20195;-92
2024/01/27 11:17:18;;;;;;;0.20;0.20;;;7.10;99.90;;;;;;5024726;28;21038;-91
2024/01/27 11:19:45;;;;;;;0.30;0.30;;;7.00;99.90;;;;;;4996511;28;20425;-88
2024/01/27 11:22:30;;;;;;;0.97;0.97;;;6.90;99.90;;;;;;5023247;28;20435;-93
2024/01/27 11:25:13;;;;;;;0.20;0.20;;;6.90;99.90;;;;;;5020782;28;20436;-94
2024/01/27 11:27:39;;;;;;;0.30;0.30;;;6.80;99.90;;;;;;4997936;28;20424;-94
2024/01/27 11:30:06;;;;;;;;;;;6.60;99.90;;;;;;5021050;28;20434;-94
2024/01/27 11:32:32;;;;;;;;;;;6.60;99.90;;;;;;5036828;28;19917;-94
2024/01/27 11:35:00;;;;;;;;;;;6.60;99.90;;;;;;5013376;28;19917;-93
2024/01/27 11:37:30;;;;;;;;;;;6.60;99.90;;;;;;5025898;28;19909;-94
2024/01/27 11:40:03;;;;;;;;;;;6.60;99.90;;;;;;5004106;28;19916;-92
2024/01/27 11:42:28;;;;;;;;;;;6.60;99.90;;;;;;5017711;28;20036;-93
2024/01/27 11:44:54;;;;;;;;;;;6.60;99.90;;;;;;5017185;28;20004;-93
2024/01/27 11:47:22;;;;;;;;;;;6.50;99.90;;;;;;5015002;28;19905;-94
2024/01/27 11:49:56;;;;;;;;;;;6.60;99.90;;;;;;5008360;28;19921;-93
2024/01/27 11:52:23;;;;;;;;;;;6.60;99.90;;;;;;5016850;28;20224;-93
2024/01/27 11:54:58;;;;;;;;;;;6.60;99.90;;;;;;5015056;28;19916;-94
2024/01/27 11:57:23;;;;;;;;;;;6.50;99.90;;;;;;5019369;28;19920;-94
2024/01/27 11:59:50;;;;;;;;;;;6.60;99.90;;;;;;5016355;28;19905;-91
2024/01/27 12:02:17;;;;;;;;;;;6.80;99.90;;;;;;5018865;28;19909;-92
2024/01/27 12:04:42;;;;;;;;;;;6.80;99.90;;;;;;5013602;28;19917;-93
2024/01/27 12:07:09;;;;;;;;;;;6.90;99.90;;;;;;5024345;28;19917;-91
2024/01/27 12:09:37;;;;;;;;;;;6.90;99.90;;;;;;5026266;28;19909;-92
2024/01/27 12:12:03;;;;;;;;;;;6.80;99.90;;;;;;5005589;28;19928;-92
2024/01/27 12:14:44;;;;;;;;;;;6.80;99.90;;;;;;5020076;28;19908;-92
2024/01/27 12:17:10;;;;;;;;;;;6.80;99.90;;;;;;5020904;28;19944;-93
2024/01/27 12:19:35;;;;;;;;;;;6.90;99.90;;;;;;5025715;28;19961;-92
2024/01/27 12:22:01;;;;;;;;;;;6.90;99.90;;;;;;5023768;28;20332;-92
2024/01/27 12:24:27;;;;;;;;;;;6.90;99.90;;;;;;5019659;28;19913;-92
2024/01/27 12:26:52;;;;;;;;;;;6.80;99.90;;;;;;5022836;28;19939;-92
2024/01/27 12:29:20;;;;;;;;;;;6.80;99.90;;;;;;5013874;28;20374;-92
2024/01/27 12:31:46;;;;;;;;;;;6.70;99.90;;;;;;5025414;28;19920;-92
2024/01/27 12:34:11;;;;;;;;;;;6.70;99.90;;;;;;5025099;28;19967;-91
2024/01/27 12:36:42;;;;;;;;;;;6.80;99.90;;;;;;5015988;28;19919;-92
2024/01/27 12:39:08;;;;;;;;;;;6.80;99.90;;;;;;5003486;28;19913;-91
2024/01/27 12:41:34;;;;;;;;;;;6.80;99.90;;;;;;5024910;28;19935;-92
2024/01/27 12:44:00;;;;;;;;;;;6.80;99.90;;;;;;5018508;28;19944;-91
2024/01/27 12:46:25;;;;;;;;;;;6.80;99.90;;;;;;5025831;28;20327;-91
2024/01/27 12:48:51;;;;;;;;;;;6.90;99.90;;;;;;5032731;28;19953;-90
2024/01/27 12:51:17;;;;;;;;;;;6.80;99.90;;;;;;5014201;28;19909;-91
2024/01/27 12:53:44;;;;;;;;;;;7.10;99.90;;;;;;5024432;28;19917;-91
2024/01/27 12:56:14;;;;;;;;;;;7.10;99.90;;;;;;5016854;28;19963;-91
2024/01/27 12:58:39;;;;;;;;;;;7.30;99.90;;;;;;5029313;28;19909;-92
2024/01/27 13:01:05;;;;;;;;;;;7.20;99.90;;;;;;5022349;28;19918;-94